sensor_id;sensor_type;location;lat;lon;timestamp;pressure;altitude;pressure_sealevel;temperature;humidity
66524;BME280;53350;52.210;5.160;2023-02-01T00:01:48;101978.06;;;7.95;67.37
66524;BME280;53350;52.210;5.160;2023-02-01T00:04:14;101979.06;;;8.03;66.87
66524;BME280;53350;52.210;5.160;2023-02-01T00:06:41;101970.56;;;8.06;67.19
66524;BME280;53350;52.210;5.160;2023-02-01T00:09:07;101980.88;;;8.09;67.20
66524;BME280;53350;52.210;5.160;2023-02-01T00:11:34;101987.75;;;8.11;67.52
66524;BME280;53350;52.210;5.160;2023-02-01T00:14:02;101974.97;;;8.13;67.30
66524;BME280;53350;52.210;5.160;2023-02-01T00:16:30;101972.47;;;8.17;67.13
66524;BME280;53350;52.210;5.160;2023-02-01T00:18:58;101987.91;;;8.21;67.08
66524;BME280;53350;52.210;5.160;2023-02-01T00:21:25;101983.63;;;8.21;67.27
66524;BME280;53350;52.210;5.160;2023-02-01T00:23:51;101974.25;;;8.22;66.98
66524;BME280;53350;52.210;5.160;2023-02-01T00:26:20;101970.88;;;8.26;66.85
66524;BME280;53350;52.210;5.160;2023-02-01T00:28:48;101973.53;;;8.32;66.72
66524;BME280;53350;52.210;5.160;2023-02-01T00:31:16;101969.31;;;8.35;66.22
66524;BME280;53350;52.210;5.160;2023-02-01T00:33:43;101976.16;;;8.35;66.51
66524;BME280;53350;52.210;5.160;2023-02-01T00:36:12;101982.22;;;8.39;66.38
66524;BME280;53350;52.210;5.160;2023-02-01T00:38:39;101968.47;;;8.36;66.03
66524;BME280;53350;52.210;5.160;2023-02-01T00:41:07;101971.16;;;8.44;65.80
66524;BME280;53350;52.210;5.160;2023-02-01T00:43:34;101972.97;;;8.50;65.77
66524;BME280;53350;52.210;5.160;2023-02-01T00:46:01;101983.19;;;8.47;66.01
66524;BME280;53350;52.210;5.160;2023-02-01T00:48:29;101972.13;;;8.49;66.13
66524;BME280;53350;52.210;5.160;2023-02-01T00:50:58;101954.22;;;8.56;65.43
66524;BME280;53350;52.210;5.160;2023-02-01T00:53:25;101965.34;;;8.55;65.39
66524;BME280;53350;52.210;5.160;2023-02-01T00:55:51;101967.94;;;8.56;65.34
66524;BME280;53350;52.210;5.160;2023-02-01T00:58:18;101965.41;;;8.59;65.27
66524;BME280;53350;52.210;5.160;2023-02-01T01:00:44;101966.25;;;8.58;64.95
66524;BME280;53350;52.210;5.160;2023-02-01T01:03:11;101963.69;;;8.60;65.21
66524;BME280;53350;52.210;5.160;2023-02-01T01:05:45;101949.16;;;8.60;65.43
66524;BME280;53350;52.210;5.160;2023-02-01T01:08:12;101956.03;;;8.63;65.02
66524;BME280;53350;52.210;5.160;2023-02-01T01:10:38;101950.09;;;8.65;64.52
66524;BME280;53350;52.210;5.160;2023-02-01T01:13:05;101949.31;;;8.71;64.42
66524;BME280;53350;52.210;5.160;2023-02-01T01:15:35;101956.97;;;8.66;64.41
66524;BME280;53350;52.210;5.160;2023-02-01T01:18:02;101956.97;;;8.66;64.46
66524;BME280;53350;52.210;5.160;2023-02-01T01:20:28;101950.94;;;8.67;64.25
66524;BME280;53350;52.210;5.160;2023-02-01T01:22:56;101952.66;;;8.67;64.43
66524;BME280;53350;52.210;5.160;2023-02-01T01:25:22;101950.09;;;8.67;64.32
66524;BME280;53350;52.210;5.160;2023-02-01T01:27:49;101960.38;;;8.67;64.23
66524;BME280;53350;52.210;5.160;2023-02-01T01:30:16;101956.94;;;8.65;64.04
66524;BME280;53350;52.210;5.160;2023-02-01T01:32:42;101957.81;;;8.68;63.86
66524;BME280;53350;52.210;5.160;2023-02-01T01:35:09;101953.56;;;8.69;64.17
66524;BME280;53350;52.210;5.160;2023-02-01T01:37:36;101953.56;;;8.69;64.06
66524;BME280;53350;52.210;5.160;2023-02-01T01:40:05;101948.47;;;8.72;64.06
66524;BME280;53350;52.210;5.160;2023-02-01T01:42:36;101945.97;;;8.77;64.04
66524;BME280;53350;52.210;5.160;2023-02-01T01:45:05;101951.97;;;8.79;64.12
66524;BME280;53350;52.210;5.160;2023-02-01T01:47:35;101946.00;;;8.80;64.30
66524;BME280;53350;52.210;5.160;2023-02-01T01:50:05;101940.03;;;8.82;63.93
66524;BME280;53350;52.210;5.160;2023-02-01T01:52:32;101939.25;;;8.86;64.22
66524;BME280;53350;52.210;5.160;2023-02-01T01:54:59;101947.78;;;8.87;64.37
66524;BME280;53350;52.210;5.160;2023-02-01T01:57:32;101936.72;;;8.91;64.20
66524;BME280;53350;52.210;5.160;2023-02-01T02:00:03;101929.00;;;8.91;64.13
66524;BME280;53350;52.210;5.160;2023-02-01T02:02:33;101918.75;;;8.93;64.33
66524;BME280;53350;52.210;5.160;2023-02-01T02:05:00;101916.19;;;8.94;64.44
66524;BME280;53350;52.210;5.160;2023-02-01T02:07:30;101919.56;;;8.90;64.78
66524;BME280;53350;52.210;5.160;2023-02-01T02:09:56;101920.50;;;8.95;64.91
66524;BME280;53350;52.210;5.160;2023-02-01T02:12:23;101917.06;;;8.98;64.63
66524;BME280;53350;52.210;5.160;2023-02-01T02:14:51;101928.28;;;9.03;64.88
66524;BME280;53350;52.210;5.160;2023-02-01T02:17:29;101902.63;;;9.06;64.51
66524;BME280;53350;52.210;5.160;2023-02-01T02:23:26;101895.69;;;8.99;64.82
66524;BME280;53350;52.210;5.160;2023-02-01T02:26:31;101889.69;;;8.97;64.78
66524;BME280;53350;52.210;5.160;2023-02-01T02:29:39;101877.66;;;8.96;64.56
66524;BME280;53350;52.210;5.160;2023-02-01T02:33:03;101897.38;;;8.95;64.54
66524;BME280;53350;52.210;5.160;2023-02-01T02:35:38;101887.88;;;8.90;64.81
66524;BME280;53350;52.210;5.160;2023-02-01T02:38:13;101890.47;;;8.91;64.59
66524;BME280;53350;52.210;5.160;2023-02-01T02:40:48;101893.91;;;8.95;64.67
66524;BME280;53350;52.210;5.160;2023-02-01T02:43:20;101899.94;;;8.95;64.40
66524;BME280;53350;52.210;5.160;2023-02-01T02:46:06;101894.88;;;9.01;64.22
66524;BME280;53350;52.210;5.160;2023-02-01T02:48:55;101891.47;;;9.02;64.47
66524;BME280;53350;52.210;5.160;2023-02-01T02:51:29;101882.91;;;9.07;64.12
66524;BME280;53350;52.210;5.160;2023-02-01T02:54:18;101863.22;;;9.05;64.51
66524;BME280;53350;52.210;5.160;2023-02-01T02:57:07;101865.78;;;9.04;64.39
66524;BME280;53350;52.210;5.160;2023-02-01T02:59:55;101859.69;;;8.97;64.98
66524;BME280;53350;52.210;5.160;2023-02-01T03:02:41;101862.25;;;8.97;64.74
66524;BME280;53350;52.210;5.160;2023-02-01T03:05:25;101855.44;;;8.99;64.63
66524;BME280;53350;52.210;5.160;2023-02-01T03:08:02;101861.41;;;8.97;64.82
66524;BME280;53350;52.210;5.160;2023-02-01T03:10:42;101840.75;;;8.89;64.83
66524;BME280;53350;52.210;5.160;2023-02-01T03:13:13;101847.59;;;8.88;64.67
66524;BME280;53350;52.210;5.160;2023-02-01T03:15:46;101856.19;;;8.91;64.99
66524;BME280;53350;52.210;5.160;2023-02-01T03:18:19;101846.78;;;8.91;65.10
66524;BME280;53350;52.210;5.160;2023-02-01T03:20:49;101850.16;;;8.85;64.95
66524;BME280;53350;52.210;5.160;2023-02-01T03:23:22;101845.00;;;8.85;65.04
66524;BME280;53350;52.210;5.160;2023-02-01T03:25:52;101850.94;;;8.81;65.38
66524;BME280;53350;52.210;5.160;2023-02-01T03:28:22;101861.19;;;8.78;65.34
66524;BME280;53350;52.210;5.160;2023-02-01T03:30:49;101865.50;;;8.79;65.49
66524;BME280;53350;52.210;5.160;2023-02-01T03:33:19;101866.31;;;8.77;65.18
66524;BME280;53350;52.210;5.160;2023-02-01T03:35:56;101857.63;;;8.65;65.55
66524;BME280;53350;52.210;5.160;2023-02-01T03:38:28;101856.81;;;8.68;65.35
66524;BME280;53350;52.210;5.160;2023-02-01T03:41:00;101854.19;;;8.65;65.68
66524;BME280;53350;52.210;5.160;2023-02-01T03:43:31;101853.41;;;8.69;65.89
66524;BME280;53350;52.210;5.160;2023-02-01T03:46:02;101859.41;;;8.71;65.86
66524;BME280;53350;52.210;5.160;2023-02-01T03:48:32;101869.69;;;8.71;65.49
66524;BME280;53350;52.210;5.160;2023-02-01T03:51:01;101867.16;;;8.77;65.22
66524;BME280;53350;52.210;5.160;2023-02-01T03:53:32;101863.75;;;8.77;65.25
66524;BME280;53350;52.210;5.160;2023-02-01T03:56:02;101867.16;;;8.76;65.25
66524;BME280;53350;52.210;5.160;2023-02-01T03:58:29;101867.19;;;8.79;65.06
66524;BME280;53350;52.210;5.160;2023-02-01T04:00:57;101857.84;;;8.84;64.89
66524;BME280;53350;52.210;5.160;2023-02-01T04:03:26;101870.72;;;8.87;65.21
66524;BME280;53350;52.210;5.160;2023-02-01T04:05:53;101866.53;;;8.94;64.54
66524;BME280;53350;52.210;5.160;2023-02-01T04:08:20;101857.91;;;8.92;64.75
66524;BME280;53350;52.210;5.160;2023-02-01T04:10:48;101857.91;;;8.92;64.85
66524;BME280;53350;52.210;5.160;2023-02-01T04:13:14;101862.25;;;8.96;64.60
66524;BME280;53350;52.210;5.160;2023-02-01T04:15:41;101885.38;;;8.96;64.96
66524;BME280;53350;52.210;5.160;2023-02-01T04:18:08;101883.63;;;8.92;64.82
66524;BME280;53350;52.210;5.160;2023-02-01T04:20:34;101887.91;;;8.93;64.77
66524;BME280;53350;52.210;5.160;2023-02-01T04:23:01;101876.81;;;8.95;64.64
66524;BME280;53350;52.210;5.160;2023-02-01T04:25:28;101877.72;;;9.00;64.63
66524;BME280;53350;52.210;5.160;2023-02-01T04:27:56;101876.91;;;9.04;64.53
66524;BME280;53350;52.210;5.160;2023-02-01T04:30:22;101874.31;;;9.01;64.61
66524;BME280;53350;52.210;5.160;2023-02-01T04:32:49;101873.47;;;9.02;64.61
66524;BME280;53350;52.210;5.160;2023-02-01T04:35:16;101877.72;;;9.00;64.40
66524;BME280;53350;52.210;5.160;2023-02-01T04:37:42;101863.09;;;8.95;64.70
66524;BME280;53350;52.210;5.160;2023-02-01T04:40:10;101861.41;;;8.95;64.92
66524;BME280;53350;52.210;5.160;2023-02-01T04:42:37;101854.44;;;8.86;64.91
66524;BME280;53350;52.210;5.160;2023-02-01T04:45:05;101856.97;;;8.83;65.34
66524;BME280;53350;52.210;5.160;2023-02-01T04:47:32;101857.81;;;8.81;65.24
66524;BME280;53350;52.210;5.160;2023-02-01T04:49:58;101852.63;;;8.78;65.59
66524;BME280;53350;52.210;5.160;2023-02-01T04:52:25;101859.44;;;8.76;65.25
66524;BME280;53350;52.210;5.160;2023-02-01T04:54:52;101867.16;;;8.76;65.17
66524;BME280;53350;52.210;5.160;2023-02-01T04:57:22;101852.63;;;8.76;65.00
66524;BME280;53350;52.210;5.160;2023-02-01T04:59:49;101857.66;;;8.70;65.47
66524;BME280;53350;52.210;5.160;2023-02-01T05:02:16;101850.88;;;8.72;65.41
66524;BME280;53350;52.210;5.160;2023-02-01T05:04:43;101853.41;;;8.70;65.50
66524;BME280;53350;52.210;5.160;2023-02-01T05:07:09;101861.06;;;8.67;65.92
66524;BME280;53350;52.210;5.160;2023-02-01T05:09:36;101863.63;;;8.67;65.85
66524;BME280;53350;52.210;5.160;2023-02-01T05:12:02;101846.56;;;8.71;65.57
66524;BME280;53350;52.210;5.160;2023-02-01T05:14:46;101849.97;;;8.70;65.66
66524;BME280;53350;52.210;5.160;2023-02-01T05:17:14;101846.47;;;8.63;66.11
66524;BME280;53350;52.210;5.160;2023-02-01T05:19:41;101840.50;;;8.67;65.89
66524;BME280;53350;52.210;5.160;2023-02-01T05:22:08;101850.84;;;8.70;65.96
66524;BME280;53350;52.210;5.160;2023-02-01T05:24:34;101865.38;;;8.70;66.06
66524;BME280;53350;52.210;5.160;2023-02-01T05:27:01;101854.25;;;8.71;65.96
66524;BME280;53350;52.210;5.160;2023-02-01T05:29:27;101866.28;;;8.74;66.44
66524;BME280;53350;52.210;5.160;2023-02-01T05:31:53;101858.59;;;8.74;65.88
66524;BME280;53350;52.210;5.160;2023-02-01T05:34:20;101872.25;;;8.73;65.85
66524;BME280;53350;52.210;5.160;2023-02-01T05:36:48;101870.56;;;8.75;66.08
66524;BME280;53350;52.210;5.160;2023-02-01T05:39:14;101870.63;;;8.78;66.29
66524;BME280;53350;52.210;5.160;2023-02-01T05:41:41;101880.00;;;8.77;66.36
66524;BME280;53350;52.210;5.160;2023-02-01T05:44:07;101880.03;;;8.79;66.29
66524;BME280;53350;52.210;5.160;2023-02-01T05:46:34;101874.91;;;8.80;66.10
66524;BME280;53350;52.210;5.160;2023-02-01T05:49:01;101868.91;;;8.78;66.04
66524;BME280;53350;52.210;5.160;2023-02-01T05:51:28;101871.47;;;8.77;66.47
66524;BME280;53350;52.210;5.160;2023-02-01T05:53:56;101868.06;;;8.78;66.43
66524;BME280;53350;52.210;5.160;2023-02-01T05:56:22;101863.78;;;8.78;66.34
66524;BME280;53350;52.210;5.160;2023-02-01T05:58:49;101865.47;;;8.78;66.77
66524;BME280;53350;52.210;5.160;2023-02-01T06:01:15;101876.63;;;8.78;67.21
66524;BME280;53350;52.210;5.160;2023-02-01T06:03:42;101867.19;;;8.80;66.67
66524;BME280;53350;52.210;5.160;2023-02-01T06:06:08;101863.81;;;8.84;66.79
66524;BME280;53350;52.210;5.160;2023-02-01T06:08:35;101875.00;;;8.85;66.60
66524;BME280;53350;52.210;5.160;2023-02-01T06:11:04;101870.69;;;8.85;66.53
66524;BME280;53350;52.210;5.160;2023-02-01T06:13:31;101864.75;;;8.88;66.22
66524;BME280;53350;52.210;5.160;2023-02-01T06:15:57;101871.59;;;8.89;66.32
66524;BME280;53350;52.210;5.160;2023-02-01T06:18:24;101874.94;;;8.83;66.59
66524;BME280;53350;52.210;5.160;2023-02-01T06:20:54;101869.78;;;8.82;65.99
66524;BME280;53350;52.210;5.160;2023-02-01T06:23:20;101880.88;;;8.76;66.54
66524;BME280;53350;52.210;5.160;2023-02-01T06:25:48;101882.56;;;8.76;66.46
66524;BME280;53350;52.210;5.160;2023-02-01T06:28:16;101877.44;;;8.77;66.10
66524;BME280;53350;52.210;5.160;2023-02-01T06:30:43;101882.56;;;8.74;66.35
66524;BME280;53350;52.210;5.160;2023-02-01T06:33:11;101875.63;;;8.68;66.33
66524;BME280;53350;52.210;5.160;2023-02-01T06:35:38;101875.66;;;8.70;66.28
66524;BME280;53350;52.210;5.160;2023-02-01T06:38:06;101875.63;;;8.68;66.45
66524;BME280;53350;52.210;5.160;2023-02-01T06:40:33;101879.03;;;8.66;66.19
66524;BME280;53350;52.210;5.160;2023-02-01T06:43:00;101876.44;;;8.64;66.58
66524;BME280;53350;52.210;5.160;2023-02-01T06:45:28;101882.44;;;8.65;66.21
66524;BME280;53350;52.210;5.160;2023-02-01T06:47:54;101875.63;;;8.67;66.21
66524;BME280;53350;52.210;5.160;2023-02-01T06:50:21;101890.19;;;8.66;66.01
66524;BME280;53350;52.210;5.160;2023-02-01T06:52:48;101886.66;;;8.60;66.52
66524;BME280;53350;52.210;5.160;2023-02-01T06:55:14;101880.75;;;8.65;66.28
66524;BME280;53350;52.210;5.160;2023-02-01T06:57:41;101887.59;;;8.65;66.69
66524;BME280;53350;52.210;5.160;2023-02-01T07:00:08;101869.66;;;8.68;66.56
66524;BME280;53350;52.210;5.160;2023-02-01T07:02:36;101880.75;;;8.67;66.99
66524;BME280;53350;52.210;5.160;2023-02-01T07:05:03;101875.63;;;8.67;67.16
66524;BME280;53350;52.210;5.160;2023-02-01T07:07:30;101879.94;;;8.71;66.84
66524;BME280;53350;52.210;5.160;2023-02-01T07:09:56;101890.22;;;8.69;67.22
66524;BME280;53350;52.210;5.160;2023-02-01T07:12:22;101881.69;;;8.74;67.20
66524;BME280;53350;52.210;5.160;2023-02-01T07:14:49;101883.41;;;8.75;66.98
66524;BME280;53350;52.210;5.160;2023-02-01T07:17:15;101867.09;;;8.71;67.25
66524;BME280;53350;52.210;5.160;2023-02-01T07:19:43;101884.28;;;8.74;67.13
66524;BME280;53350;52.210;5.160;2023-02-01T07:22:10;101882.63;;;8.80;67.17
66524;BME280;53350;52.210;5.160;2023-02-01T07:24:36;101869.88;;;8.88;66.66
66524;BME280;53350;52.210;5.160;2023-02-01T07:27:02;101877.56;;;8.85;66.38
66524;BME280;53350;52.210;5.160;2023-02-01T07:29:29;101889.50;;;8.83;66.86
66524;BME280;53350;52.210;5.160;2023-02-01T07:31:55;101880.97;;;8.85;66.62
66524;BME280;53350;52.210;5.160;2023-02-01T07:34:22;101874.16;;;8.91;66.38
66524;BME280;53350;52.210;5.160;2023-02-01T07:36:49;101887.06;;;8.94;66.54
66524;BME280;53350;52.210;5.160;2023-02-01T07:39:16;101887.97;;;8.97;66.33
66524;BME280;53350;52.210;5.160;2023-02-01T07:41:42;101880.28;;;9.00;66.12
66524;BME280;53350;52.210;5.160;2023-02-01T07:44:09;101888.75;;;8.93;65.75
66524;BME280;53350;52.210;5.160;2023-02-01T07:46:36;101897.22;;;8.83;66.38
66524;BME280;53350;52.210;5.160;2023-02-01T07:49:03;101891.25;;;8.85;66.31
66524;BME280;53350;52.210;5.160;2023-02-01T07:51:30;101904.06;;;8.81;66.21
66524;BME280;53350;52.210;5.160;2023-02-01T07:53:58;101891.16;;;8.76;66.52
66524;BME280;53350;52.210;5.160;2023-02-01T07:56:25;101895.34;;;8.69;66.85
66524;BME280;53350;52.210;5.160;2023-02-01T07:58:52;101894.56;;;8.75;66.78
66524;BME280;53350;52.210;5.160;2023-02-01T08:01:21;101909.06;;;8.73;67.01
66524;BME280;53350;52.210;5.160;2023-02-01T08:03:50;101909.97;;;8.74;67.16
66524;BME280;53350;52.210;5.160;2023-02-01T08:06:17;101903.06;;;8.71;67.20
66524;BME280;53350;52.210;5.160;2023-02-01T08:08:45;101900.44;;;8.66;67.20
66524;BME280;53350;52.210;5.160;2023-02-01T08:11:13;101889.31;;;8.67;67.19
66524;BME280;53350;52.210;5.160;2023-02-01T08:13:41;101900.44;;;8.65;67.37
66524;BME280;53350;52.210;5.160;2023-02-01T08:16:09;101886.72;;;8.64;67.54
66524;BME280;53350;52.210;5.160;2023-02-01T08:18:37;101898.75;;;8.70;67.52
66524;BME280;53350;52.210;5.160;2023-02-01T08:21:05;101889.38;;;8.70;67.35
66524;BME280;53350;52.210;5.160;2023-02-01T08:23:33;101888.50;;;8.72;67.47
66524;BME280;53350;52.210;5.160;2023-02-01T08:26:07;101883.50;;;8.79;67.44
66524;BME280;53350;52.210;5.160;2023-02-01T08:28:36;101875.00;;;8.85;66.97
66524;BME280;53350;52.210;5.160;2023-02-01T08:31:07;101874.09;;;8.84;67.00
66524;BME280;53350;52.210;5.160;2023-02-01T08:33:34;101890.44;;;8.88;67.09
66524;BME280;53350;52.210;5.160;2023-02-01T08:36:03;101874.16;;;8.89;67.03
66524;BME280;53350;52.210;5.160;2023-02-01T08:38:29;101875.03;;;8.90;67.19
66524;BME280;53350;52.210;5.160;2023-02-01T08:40:56;101870.78;;;8.95;67.32
66524;BME280;53350;52.210;5.160;2023-02-01T08:43:23;101879.50;;;9.06;67.02
66524;BME280;53350;52.210;5.160;2023-02-01T08:45:54;101870.16;;;9.14;66.68
66524;BME280;53350;52.210;5.160;2023-02-01T08:48:21;101871.94;;;9.21;66.09
66524;BME280;53350;52.210;5.160;2023-02-01T08:50:47;101882.22;;;9.21;66.32
66524;BME280;53350;52.210;5.160;2023-02-01T08:53:13;101889.09;;;9.22;65.84
66524;BME280;53350;52.210;5.160;2023-02-01T08:55:40;101891.69;;;9.22;66.30
66524;BME280;53350;52.210;5.160;2023-02-01T08:58:07;101877.16;;;9.31;66.19
66524;BME280;53350;52.210;5.160;2023-02-01T09:00:33;101876.34;;;9.33;65.89
66524;BME280;53350;52.210;5.160;2023-02-01T09:03:01;101863.50;;;9.36;65.67
66524;BME280;53350;52.210;5.160;2023-02-01T09:05:27;101856.69;;;9.40;65.76
66524;BME280;53350;52.210;5.160;2023-02-01T09:07:54;101861.00;;;9.44;65.60
66524;BME280;53350;52.210;5.160;2023-02-01T09:10:20;101879.88;;;9.45;65.84
66524;BME280;53350;52.210;5.160;2023-02-01T09:12:46;101850.00;;;9.57;64.90
66524;BME280;53350;52.210;5.160;2023-02-01T09:15:13;101857.69;;;9.56;64.68
66524;BME280;53350;52.210;5.160;2023-02-01T09:17:39;101855.97;;;9.56;64.92
66524;BME280;53350;52.210;5.160;2023-02-01T09:20:11;101849.97;;;9.54;65.15
66524;BME280;53350;52.210;5.160;2023-02-01T09:22:37;101854.25;;;9.55;65.00
66524;BME280;53350;52.210;5.160;2023-02-01T09:25:04;101858.56;;;9.58;64.89
66524;BME280;53350;52.210;5.160;2023-02-01T09:27:31;101866.28;;;9.58;64.99
66524;BME280;53350;52.210;5.160;2023-02-01T09:29:57;101865.47;;;9.64;64.74
66524;BME280;53350;52.210;5.160;2023-02-01T09:32:24;101869.75;;;9.63;64.74
66524;BME280;53350;52.210;5.160;2023-02-01T09:34:51;101879.16;;;9.63;64.62
66524;BME280;53350;52.210;5.160;2023-02-01T09:37:19;101871.44;;;9.63;64.19
66524;BME280;53350;52.210;5.160;2023-02-01T09:39:46;101851.75;;;9.63;64.32
66524;BME280;53350;52.210;5.160;2023-02-01T09:42:41;101858.59;;;9.64;64.57
66524;BME280;53350;52.210;5.160;2023-02-01T09:45:15;101847.41;;;9.57;64.14
66524;BME280;53350;52.210;5.160;2023-02-01T09:47:47;101871.44;;;9.63;63.96
66524;BME280;53350;52.210;5.160;2023-02-01T09:50:17;101855.13;;;9.57;64.56
66524;BME280;53350;52.210;5.160;2023-02-01T09:52:54;101856.81;;;9.57;64.26
66524;BME280;53350;52.210;5.160;2023-02-01T09:55:28;101845.63;;;9.49;64.32
66524;BME280;53350;52.210;5.160;2023-02-01T09:58:01;101860.94;;;9.38;64.42
66524;BME280;53350;52.210;5.160;2023-02-01T10:00:30;101859.28;;;9.43;64.49
66524;BME280;53350;52.210;5.160;2023-02-01T10:03:00;101856.75;;;9.46;65.05
66524;BME280;53350;52.210;5.160;2023-02-01T10:05:40;101858.50;;;9.49;65.86
66524;BME280;53350;52.210;5.160;2023-02-01T10:08:16;101851.63;;;9.49;67.00
66524;BME280;53350;52.210;5.160;2023-02-01T10:10:47;101860.16;;;9.47;67.41
66524;BME280;53350;52.210;5.160;2023-02-01T10:13:34;101869.59;;;9.43;67.87
66524;BME280;53350;52.210;5.160;2023-02-01T10:16:18;101852.38;;;9.34;69.04
66524;BME280;53350;52.210;5.160;2023-02-01T10:18:54;101862.56;;;9.28;69.11
66524;BME280;53350;52.210;5.160;2023-02-01T10:21:32;101861.66;;;9.21;69.17
66524;BME280;53350;52.210;5.160;2023-02-01T10:24:18;101861.56;;;9.14;69.29
66524;BME280;53350;52.210;5.160;2023-02-01T10:26:51;101860.78;;;9.19;68.88
66524;BME280;53350;52.210;5.160;2023-02-01T10:29:26;101863.28;;;9.12;68.85
66524;BME280;53350;52.210;5.160;2023-02-01T10:31:54;101864.19;;;9.17;69.04
66524;BME280;53350;52.210;5.160;2023-02-01T10:34:25;101857.34;;;9.19;68.61
66524;BME280;53350;52.210;5.160;2023-02-01T10:36:54;101847.88;;;9.16;68.55
66524;BME280;53350;52.210;5.160;2023-02-01T10:39:23;101858.19;;;9.19;67.13
66524;BME280;53350;52.210;5.160;2023-02-01T10:41:50;101848.84;;;9.25;68.41
66524;BME280;53350;52.210;5.160;2023-02-01T10:44:19;101841.16;;;9.28;68.03
66524;BME280;53350;52.210;5.160;2023-02-01T10:46:48;101843.84;;;9.38;67.71
66524;BME280;53350;52.210;5.160;2023-02-01T10:49:18;101847.28;;;9.44;67.04
66524;BME280;53350;52.210;5.160;2023-02-01T10:51:47;101858.50;;;9.50;67.34
66524;BME280;53350;52.210;5.160;2023-02-01T10:54:19;101835.38;;;9.53;67.18
66524;BME280;53350;52.210;5.160;2023-02-01T10:56:49;101843.16;;;9.63;66.65
66524;BME280;53350;52.210;5.160;2023-02-01T10:59:19;101829.44;;;9.62;66.79
66524;BME280;53350;52.210;5.160;2023-02-01T11:01:48;101862.88;;;9.62;66.74
66524;BME280;53350;52.210;5.160;2023-02-01T11:04:16;101849.19;;;9.63;66.72
66524;BME280;53350;52.210;5.160;2023-02-01T11:06:46;101845.72;;;9.63;67.54
66524;BME280;53350;52.210;5.160;2023-02-01T11:09:18;101848.25;;;9.55;68.37
66524;BME280;53350;52.210;5.160;2023-02-01T11:11:56;101848.19;;;9.47;69.29
66524;BME280;53350;52.210;5.160;2023-02-01T11:14:35;101843.06;;;9.49;69.46
66524;BME280;53350;52.210;5.160;2023-02-01T11:17:21;101811.28;;;9.42;69.24
66524;BME280;53350;52.210;5.160;2023-02-01T11:19:56;101825.03;;;9.47;68.09
66524;BME280;53350;52.210;5.160;2023-02-01T11:22:25;101834.47;;;9.50;68.58
66524;BME280;53350;52.210;5.160;2023-02-01T11:24:52;101841.38;;;9.57;68.56
66524;BME280;53350;52.210;5.160;2023-02-01T11:27:22;101852.56;;;9.56;67.72
66524;BME280;53350;52.210;5.160;2023-02-01T11:29:51;101839.72;;;9.59;67.96
66524;BME280;53350;52.210;5.160;2023-02-01T11:32:20;101831.16;;;9.62;67.95
66524;BME280;53350;52.210;5.160;2023-02-01T11:34:51;101832.03;;;9.64;67.42
66524;BME280;53350;52.210;5.160;2023-02-01T11:37:20;101849.19;;;9.66;67.36
66524;BME280;53350;52.210;5.160;2023-02-01T11:39:54;101842.34;;;9.68;67.10
66524;BME280;53350;52.210;5.160;2023-02-01T11:42:22;101838.09;;;9.70;67.07
66524;BME280;53350;52.210;5.160;2023-02-01T11:44:49;101825.25;;;9.75;66.95
66524;BME280;53350;52.210;5.160;2023-02-01T11:47:24;101820.97;;;9.80;66.54
66524;BME280;53350;52.210;5.160;2023-02-01T11:49:52;101806.44;;;9.85;66.32
66524;BME280;53350;52.210;5.160;2023-02-01T11:52:33;101807.31;;;9.90;65.83
66524;BME280;53350;52.210;5.160;2023-02-01T11:55:28;101819.34;;;9.90;65.45
66524;BME280;53350;52.210;5.160;2023-02-01T11:58:06;101800.47;;;9.92;65.86
66524;BME280;53350;52.210;5.160;2023-02-01T12:00:49;101808.19;;;9.91;65.48
66524;BME280;53350;52.210;5.160;2023-02-01T12:03:38;101790.19;;;9.94;65.36
66524;BME280;53350;52.210;5.160;2023-02-01T12:06:11;101803.91;;;9.96;65.25
66524;BME280;53350;52.210;5.160;2023-02-01T12:09:05;101812.53;;;9.97;65.37
66524;BME280;53350;52.210;5.160;2023-02-01T12:11:45;101803.09;;;10.00;65.24
66524;BME280;53350;52.210;5.160;2023-02-01T12:14:24;101798.84;;;10.04;65.09
66524;BME280;53350;52.210;5.160;2023-02-01T12:17:18;101789.41;;;10.06;64.87
66524;BME280;53350;52.210;5.160;2023-02-01T12:20:02;101791.16;;;10.13;64.74
66524;BME280;53350;52.210;5.160;2023-02-01T12:22:41;101801.41;;;10.04;64.87
66524;BME280;53350;52.210;5.160;2023-02-01T12:25:23;101803.97;;;10.02;65.07
66524;BME280;53350;52.210;5.160;2023-02-01T12:28:22;101800.59;;;10.09;65.15
66524;BME280;53350;52.210;5.160;2023-02-01T12:31:09;101803.16;;;10.09;64.96
66524;BME280;53350;52.210;5.160;2023-02-01T12:33:49;101803.16;;;10.08;65.29
66524;BME280;53350;52.210;5.160;2023-02-01T12:36:25;101801.44;;;10.12;65.46
66524;BME280;53350;52.210;5.160;2023-02-01T12:39:01;101802.28;;;10.06;65.35
66524;BME280;53350;52.210;5.160;2023-02-01T12:41:47;101791.13;;;10.10;65.48
66524;BME280;53350;52.210;5.160;2023-02-01T12:44:24;101808.31;;;10.09;65.46
66524;BME280;53350;52.210;5.160;2023-02-01T12:46:56;101791.13;;;10.08;65.41
66524;BME280;53350;52.210;5.160;2023-02-01T12:49:30;101794.56;;;10.07;65.64
66524;BME280;53350;52.210;5.160;2023-02-01T12:52:00;101750.84;;;10.17;64.93
66524;BME280;53350;52.210;5.160;2023-02-01T12:54:34;101786.00;;;10.15;65.36
66524;BME280;53350;52.210;5.160;2023-02-01T12:57:03;101808.34;;;10.17;65.13
66524;BME280;53350;52.210;5.160;2023-02-01T12:59:34;101815.16;;;10.07;65.20
66524;BME280;53350;52.210;5.160;2023-02-01T13:02:14;101801.44;;;10.12;65.23
66524;BME280;53350;52.210;5.160;2023-02-01T13:04:53;101808.31;;;10.11;65.20
66524;BME280;53350;52.210;5.160;2023-02-01T13:07:27;101810.03;;;10.14;65.22
66524;BME280;53350;52.210;5.160;2023-02-01T13:09:59;101797.97;;;10.06;65.01
66524;BME280;53350;52.210;5.160;2023-02-01T13:12:33;101805.72;;;10.08;65.38
66524;BME280;53350;52.210;5.160;2023-02-01T13:15:05;101809.16;;;10.13;65.36
66524;BME280;53350;52.210;5.160;2023-02-01T13:17:39;101810.88;;;10.11;65.31
66524;BME280;53350;52.210;5.160;2023-02-01T13:20:15;101803.16;;;10.08;65.18
66524;BME280;53350;52.210;5.160;2023-02-01T13:22:45;101792.81;;;10.02;65.01